Stations météo

réclame
Mon MeteoGroup
Cairnwell, Grande-Bretagne (3072): Température de l'air & dewpoint: 10.07.2019 11:00:00 - 16.07.2019 11:00:00 (BST)Cairnwell, Grande-Bretagne (3072): Vitesse du vent & gusts: 10.07.2019 11:00:00 - 16.07.2019 11:00:00 (BST)Cairnwell, Grande-Bretagne (3072): Direction du vent: 10.07.2019 11:00:00 - 16.07.2019 11:00:00 (BST)
Date & Time tt [°C] td [°C] ff [km/h] ff [knt] fx [km/h] fx [knt] dd
16.07.2019 11:00:00 - - - - - - -
16.07.2019 10:00:00 - - - - - - -
16.07.2019 09:00:00 12,0 7,2 8 4 - - WSW
16.07.2019 08:00:00 11,5 5,8 13 7 - - W
16.07.2019 07:00:00 11,2 8,7 5 3 - - W
16.07.2019 06:00:00 11,4 9,8 8 4 - - W
16.07.2019 05:00:00 10,8 10,3 4 2 - - NNW
16.07.2019 04:00:00 10,8 10,5 8 4 - - NW
16.07.2019 03:00:00 11,1 11,0 11 6 - - W
16.07.2019 02:00:00 10,8 10,8 16 9 - - SW
16.07.2019 01:00:00 10,8 10,8 16 9 - - SW
16.07.2019 00:00:00 11,3 11,3 15 8 - - SW
15.07.2019 23:00:00 11,5 11,5 18 10 - - SSW
15.07.2019 22:00:00 11,9 10,4 22 12 - - SSW
15.07.2019 21:00:00 12,8 9,0 24 13 - - SSW
15.07.2019 20:00:00 13,9 7,7 29 16 - - S
15.07.2019 19:00:00 14,6 7,3 31 17 - - SSW
15.07.2019 18:00:00 14,4 6,8 28 15 - - SSW
15.07.2019 17:00:00 14,9 7,3 26 14 - - SSW
15.07.2019 16:00:00 14,8 8,3 26 14 - - SSW
15.07.2019 15:00:00 14,6 7,5 22 12 - - SSW
15.07.2019 14:00:00 14,2 7,2 21 11 - - SSW
15.07.2019 13:00:00 13,9 8,4 18 10 - - S
15.07.2019 12:00:00 12,5 8,2 16 9 - - S
15.07.2019 11:00:00 11,9 7,9 11 6 - - SSW
15.07.2019 10:00:00 12,3 4,3 4 2 - - WSW
15.07.2019 09:00:00 11,8 2,2 5 3 - - NW
15.07.2019 08:00:00 10,8 1,3 9 5 - - NW
15.07.2019 07:00:00 11,1 2,3 4 2 - - NW
15.07.2019 06:00:00 10,3 7,1 5 3 - - WNW
15.07.2019 05:00:00 8,8 8,8 4 2 - - NNW
15.07.2019 04:00:00 7,9 7,9 5 3 - - SW
15.07.2019 03:00:00 9,2 9,2 5 3 - - WNW
15.07.2019 02:00:00 9,5 9,3 4 2 - - W
15.07.2019 01:00:00 9,9 9,9 4 2 - - WNW
15.07.2019 00:00:00 9,5 9,2 5 3 - - NNE
14.07.2019 23:00:00 9,7 9,7 8 4 - - E
14.07.2019 22:00:00 10,4 9,6 8 4 - - NNE
14.07.2019 21:00:00 10,3 9,9 4 2 - - W
14.07.2019 20:00:00 10,4 9,7 11 6 - - WSW
14.07.2019 19:00:00 11,8 9,6 13 7 - - SSW
14.07.2019 18:00:00 12,4 8,8 24 13 - - S
14.07.2019 17:00:00 13,4 7,0 21 11 - - S
14.07.2019 16:00:00 13,4 6,2 22 12 - - SSW
14.07.2019 15:00:00 12,3 6,2 18 10 - - SSW
14.07.2019 14:00:00 12,3 5,4 16 9 - - S
14.07.2019 13:00:00 12,0 5,3 13 7 - - S
14.07.2019 12:00:00 11,4 5,9 11 6 - - SSE
14.07.2019 11:00:00 10,3 4,0 11 6 - - ESE
14.07.2019 10:00:00 10,0 2,0 4 2 - - NNW
14.07.2019 09:00:00 7,7 2,2 9 5 - - NE
14.07.2019 08:00:00 7,2 2,8 16 9 - - N
14.07.2019 07:00:00 6,5 3,9 15 8 - - N
14.07.2019 06:00:00 5,8 5,8 26 14 - - NNW
14.07.2019 05:00:00 5,9 5,8 24 13 - - NNW
14.07.2019 04:00:00 6,4 5,9 21 11 - - N
14.07.2019 03:00:00 6,7 6,5 21 11 - - NNW
14.07.2019 02:00:00 6,9 6,9 24 13 - - NNW
14.07.2019 01:00:00 6,8 6,8 24 13 - - NNW
14.07.2019 00:00:00 7,1 7,0 13 7 - - N
13.07.2019 23:00:00 7,2 7,2 21 11 - - N
13.07.2019 22:00:00 7,7 7,0 15 8 - - N
13.07.2019 21:00:00 7,8 6,7 28 15 - - N
13.07.2019 20:00:00 7,9 7,4 24 13 - - N
13.07.2019 19:00:00 9,6 6,4 28 15 - - NNW
13.07.2019 18:00:00 10,2 6,3 24 13 - - NNW
13.07.2019 17:00:00 10,1 7,2 26 14 - - NNW
13.07.2019 16:00:00 11,8 6,1 24 13 48 26 NW
13.07.2019 15:00:00 11,7 5,2 37 20 48 26 WNW
13.07.2019 14:00:00 11,2 6,2 31 17 48 26 NW
13.07.2019 13:00:00 10,3 7,6 15 8 - - N
13.07.2019 12:00:00 10,7 8,5 15 8 - - NNW
13.07.2019 11:00:00 9,8 6,9 18 10 - - WNW
13.07.2019 10:00:00 9,0 7,9 31 17 46 25 NW
13.07.2019 09:00:00 9,0 8,9 35 19 - - NW
13.07.2019 08:00:00 9,3 9,3 16 9 - - NW
13.07.2019 07:00:00 9,0 9,0 8 4 - - NNW
13.07.2019 06:00:00 8,9 8,9 15 8 - - N
13.07.2019 05:00:00 8,9 8,9 15 8 - - N
13.07.2019 04:00:00 9,1 9,1 22 12 - - N
13.07.2019 03:00:00 9,7 9,7 22 12 - - NNW
13.07.2019 02:00:00 9,8 9,8 15 8 - - NNW
13.07.2019 01:00:00 9,9 9,9 24 13 - - NNW
13.07.2019 00:00:00 10,2 10,2 26 14 - - NNW
12.07.2019 23:00:00 10,2 10,2 28 15 - - N
12.07.2019 22:00:00 10,3 10,3 28 15 - - N
12.07.2019 21:00:00 10,6 10,6 26 14 - - N
12.07.2019 20:00:00 10,8 10,7 26 14 - - N
12.07.2019 19:00:00 10,9 10,5 31 17 - - N
12.07.2019 18:00:00 12,2 9,5 29 16 - - N
12.07.2019 17:00:00 12,1 9,0 28 15 - - N
12.07.2019 16:00:00 12,1 8,2 24 13 46 25 N
12.07.2019 15:00:00 12,8 7,2 29 16 - - NNW
12.07.2019 14:00:00 11,0 8,7 26 14 - - N
12.07.2019 13:00:00 11,1 8,6 31 17 46 25 NNW
12.07.2019 12:00:00 10,9 9,0 31 17 - - NNW
12.07.2019 11:00:00 10,0 8,5 28 15 - - NNW
12.07.2019 10:00:00 9,7 9,5 29 16 52 28 NNW
12.07.2019 09:00:00 9,3 8,9 46 25 55 30 NNW
12.07.2019 08:00:00 9,1 9,1 41 22 52 28 NNW
12.07.2019 07:00:00 8,9 8,9 31 17 52 28 N
12.07.2019 06:00:00 9,2 9,2 39 21 50 27 NNW
12.07.2019 05:00:00 9,0 9,0 37 20 52 28 N
12.07.2019 04:00:00 9,5 9,5 22 12 - - N
12.07.2019 03:00:00 9,9 9,9 24 13 - - NNW
12.07.2019 02:00:00 9,9 9,9 18 10 - - N
12.07.2019 01:00:00 9,9 9,9 21 11 - - N
12.07.2019 00:00:00 10,4 10,4 15 8 - - N
11.07.2019 23:00:00 10,8 10,8 16 9 - - NNE
11.07.2019 22:00:00 10,7 10,7 15 8 - - N
11.07.2019 21:00:00 11,2 10,8 15 8 - - N
11.07.2019 20:00:00 12,1 11,3 22 12 - - NW
11.07.2019 19:00:00 12,2 10,9 13 7 - - N
11.07.2019 18:00:00 11,2 10,9 11 6 - - NNW
11.07.2019 17:00:00 11,2 11,1 - - - - -
11.07.2019 16:00:00 12,7 10,1 21 11 - - NW
11.07.2019 15:00:00 12,4 10,6 15 8 - - SW
11.07.2019 14:00:00 12,2 9,4 13 7 - - S
11.07.2019 13:00:00 11,4 11,2 18 10 - - SSW
11.07.2019 12:00:00 11,7 10,8 13 7 - - S
11.07.2019 11:00:00 11,6 9,2 9 5 - - SSE
11.07.2019 10:00:00 11,5 9,5 11 6 - - SE
11.07.2019 09:00:00 10,8 9,5 5 3 - - SE
11.07.2019 08:00:00 11,0 9,5 11 6 - - ESE
11.07.2019 07:00:00 11,3 8,5 5 3 - - SSW
11.07.2019 06:00:00 11,6 9,2 9 5 - - NW
11.07.2019 05:00:00 11,4 9,9 5 3 - - WSW
11.07.2019 04:00:00 11,5 10,1 8 4 - - WNW
11.07.2019 03:00:00 10,7 10,2 16 9 - - NNW
11.07.2019 02:00:00 11,5 9,9 13 7 - - W
11.07.2019 01:00:00 10,8 10,5 9 5 - - SSW
11.07.2019 00:00:00 11,6 11,0 26 14 - - WNW
10.07.2019 23:00:00 11,6 11,4 13 7 - - WSW
10.07.2019 22:00:00 11,9 11,3 15 8 - - WNW
10.07.2019 21:00:00 12,3 11,6 9 5 - - SSW
10.07.2019 20:00:00 12,3 12,3 18 10 - - W
10.07.2019 19:00:00 12,5 12,1 18 10 - - WSW
10.07.2019 18:00:00 13,1 12,0 22 12 - - SSW
10.07.2019 17:00:00 13,7 10,5 16 9 - - WSW
10.07.2019 16:00:00 13,5 10,4 11 6 - - WSW
10.07.2019 15:00:00 13,9 10,7 18 10 - - W
10.07.2019 14:00:00 13,3 10,4 13 7 - - WNW
10.07.2019 13:00:00 12,9 9,6 16 9 - - WSW
10.07.2019 12:00:00 12,5 9,4 15 8 - - WSW
10.07.2019 11:00:00 12,0 8,7 11 6 - - WNW

tt = Température de l'air
td = dewpoint
ff = Vitesse du vent
fx = gusts
dd = Direction du vent

stations d'obs. à proximité